createdAt,value
2022-07-30T00:00:12.670Z,83.87
2022-07-30T00:01:12.720Z,84.47
2022-07-30T00:02:12.644Z,84.27
2022-07-30T00:03:12.710Z,83.97
2022-07-30T00:04:12.636Z,83.06
2022-07-30T00:05:12.613Z,83.97
2022-07-30T00:06:12.608Z,83.76
2022-07-30T00:07:12.592Z,83.76
2022-07-30T00:08:12.577Z,83.26
2022-07-30T00:09:12.568Z,83.26
2022-07-30T00:10:12.554Z,82.97
2022-07-30T00:11:12.546Z,82.36
2022-07-30T00:12:12.533Z,82.26
2022-07-30T00:13:14.349Z,82.56
2022-07-30T00:14:12.525Z,82.76
2022-07-30T00:15:12.507Z,82.80
2022-07-30T00:16:12.532Z,82.76
2022-07-30T00:17:12.523Z,82.70
2022-07-30T00:18:12.473Z,82.40
2022-07-30T00:19:12.461Z,82.10
2022-07-30T00:20:12.643Z,81.99
2022-07-30T00:21:12.441Z,80.99
2022-07-30T00:22:12.428Z,80.58
2022-07-30T00:23:12.422Z,80.58
2022-07-30T00:24:12.406Z,79.38
2022-07-30T00:25:12.415Z,79.58
2022-07-30T00:26:12.388Z,79.99
2022-07-30T00:27:12.378Z,79.58
2022-07-30T00:28:12.367Z,80.08
2022-07-30T00:29:12.357Z,80.22
2022-07-30T00:30:12.344Z,79.32
2022-07-30T00:31:12.390Z,78.11
2022-07-30T00:32:12.328Z,77.61
2022-07-30T00:33:12.317Z,77.31
2022-07-30T00:34:12.306Z,77.20
2022-07-30T00:35:12.294Z,76.84
2022-07-30T00:36:12.282Z,75.79
2022-07-30T00:37:12.272Z,76.03
2022-07-30T00:38:12.267Z,75.63
2022-07-30T00:39:12.256Z,75.33
2022-07-30T00:40:12.240Z,75.23
2022-07-30T00:41:12.230Z,74.52
2022-07-30T00:42:12.222Z,74.93
2022-07-30T00:43:12.210Z,74.52
2022-07-30T00:44:12.201Z,74.12
2022-07-30T00:45:12.188Z,74.62
2022-07-30T00:46:12.278Z,74.12
2022-07-30T00:47:12.169Z,74.02
2022-07-30T00:48:12.161Z,73.61
2022-07-30T00:49:12.196Z,73.41
2022-07-30T00:50:12.136Z,74.22
2022-07-30T00:51:12.127Z,73.32
2022-07-30T00:52:12.121Z,73.01
2022-07-30T00:53:12.100Z,72.34
2022-07-30T00:54:12.094Z,72.14
2022-07-30T00:55:12.083Z,72.14
2022-07-30T00:56:12.075Z,71.44
2022-07-30T00:57:12.059Z,71.03
2022-07-30T00:58:12.050Z,70.53
2022-07-30T00:59:12.039Z,70.42
2022-07-30T01:00:12.032Z,69.62
2022-07-30T01:01:12.097Z,69.62
2022-07-30T01:02:12.057Z,68.44
2022-07-30T01:03:11.993Z,68.34
2022-07-30T01:04:12.018Z,68.14
2022-07-30T01:05:11.971Z,67.84
2022-07-30T01:06:14.291Z,66.83
2022-07-30T01:07:11.948Z,65.92
2022-07-30T01:08:11.939Z,66.33
2022-07-30T01:09:11.927Z,65.42
2022-07-30T01:10:11.926Z,65.32
2022-07-30T01:11:11.905Z,65.52
2022-07-30T01:12:11.898Z,65.22
2022-07-30T01:13:11.884Z,65.22
2022-07-30T01:14:11.873Z,65.32
2022-07-30T01:15:11.860Z,64.81
2022-07-30T01:16:11.922Z,65.12
2022-07-30T01:17:11.838Z,64.31
2022-07-30T01:18:11.831Z,64.11
2022-07-30T01:19:11.826Z,64.01
2022-07-30T01:20:11.819Z,63.90
2022-07-30T01:21:11.795Z,63.90
2022-07-30T01:22:11.784Z,63.70
2022-07-30T01:23:11.780Z,63.50
2022-07-30T01:24:11.765Z,63.90
2022-07-30T01:25:11.753Z,63.30
2022-07-30T01:26:11.742Z,63.00
2022-07-30T01:27:11.729Z,63.20
2022-07-30T01:28:11.718Z,62.93
2022-07-30T01:29:11.706Z,62.40
2022-07-30T01:30:11.696Z,62.32
2022-07-30T01:31:11.707Z,62.19
2022-07-30T01:32:11.675Z,61.21
2022-07-30T01:33:11.662Z,60.81
2022-07-30T01:34:11.653Z,60.91
2022-07-30T01:35:11.641Z,60.61
2022-07-30T01:36:11.632Z,60.78
2022-07-30T01:37:11.620Z,60.21
2022-07-30T01:38:11.608Z,60.00
2022-07-30T01:39:11.597Z,59.50
2022-07-30T01:40:11.590Z,59.09
2022-07-30T01:41:11.574Z,59.00
2022-07-30T01:42:11.569Z,59.00
2022-07-30T01:43:11.553Z,58.80
2022-07-30T01:44:11.541Z,58.39
2022-07-30T01:45:11.528Z,57.68
2022-07-30T01:46:11.600Z,58.49
2022-07-30T01:47:11.508Z,57.68
2022-07-30T01:48:11.496Z,56.77
2022-07-30T01:49:11.570Z,56.48
2022-07-30T01:50:11.474Z,56.37
2022-07-30T01:51:11.462Z,56.48
2022-07-30T01:52:11.453Z,55.87
2022-07-30T01:53:11.446Z,55.46
2022-07-30T01:54:11.431Z,55.87
2022-07-30T01:55:11.510Z,55.46
2022-07-30T01:56:11.576Z,55.69
2022-07-30T01:57:11.397Z,55.77
2022-07-30T01:58:11.387Z,55.36
2022-07-30T01:59:11.372Z,55.09
2022-07-30T02:00:11.382Z,54.79
2022-07-30T02:01:11.493Z,54.18
2022-07-30T02:02:11.342Z,53.38
2022-07-30T02:03:11.431Z,52.36
2022-07-30T02:04:11.322Z,52.06
2022-07-30T02:05:11.307Z,51.66
2022-07-30T02:06:11.298Z,50.85
2022-07-30T02:07:11.287Z,51.15
2022-07-30T02:08:11.275Z,50.67
2022-07-30T02:09:11.613Z,50.98
2022-07-30T02:10:11.261Z,50.47
2022-07-30T02:11:11.246Z,50.57
2022-07-30T02:12:11.232Z,49.66
2022-07-30T02:13:11.219Z,50.16
2022-07-30T02:14:11.210Z,49.36
2022-07-30T02:15:11.196Z,49.87
2022-07-30T02:16:11.217Z,48.96
2022-07-30T02:17:18.423Z,48.15
2022-07-30T02:18:11.165Z,47.56
2022-07-30T02:19:11.156Z,47.16
2022-07-30T02:20:11.143Z,47.16
2022-07-30T02:21:13.013Z,46.66
2022-07-30T02:22:11.123Z,45.25
2022-07-30T02:23:11.109Z,45.75
2022-07-30T02:24:11.098Z,45.34
2022-07-30T02:25:11.088Z,47.49
2022-07-30T02:26:11.080Z,46.28
2022-07-30T02:27:11.064Z,46.68
2022-07-30T02:28:11.056Z,45.97
2022-07-30T02:29:11.711Z,47.08
2022-07-30T02:30:11.035Z,46.20
2022-07-30T02:31:17.476Z,44.68
2022-07-30T02:32:11.010Z,44.07
2022-07-30T02:33:10.998Z,42.86
2022-07-30T02:34:10.991Z,42.17
2022-07-30T02:35:10.979Z,39.42
2022-07-30T02:36:11.381Z,38.51
2022-07-30T02:37:10.954Z,38.63
2022-07-30T02:38:10.944Z,38.02
2022-07-30T02:39:10.935Z,37.72
2022-07-30T02:40:10.923Z,38.11
2022-07-30T02:41:10.910Z,38.13
2022-07-30T02:42:10.902Z,40.05
2022-07-30T02:43:10.887Z,38.93
2022-07-30T02:44:10.880Z,39.24
2022-07-30T02:45:10.867Z,39.54
2022-07-30T02:46:10.896Z,42.69
2022-07-30T02:47:10.896Z,41.78
2022-07-30T02:48:10.837Z,41.49
2022-07-30T02:49:10.935Z,41.89
2022-07-30T02:50:10.813Z,39.46
2022-07-30T02:51:10.803Z,39.76
2022-07-30T02:52:10.793Z,38.77
2022-07-30T02:53:10.780Z,39.26
2022-07-30T02:54:10.774Z,38.06
2022-07-30T02:55:10.768Z,38.67
2022-07-30T02:56:10.747Z,37.05
2022-07-30T02:57:10.738Z,36.24
2022-07-30T02:58:10.725Z,36.24
2022-07-30T02:59:10.712Z,37.25
2022-07-30T03:00:10.701Z,36.74
2022-07-30T03:01:10.737Z,36.14
2022-07-30T03:02:10.731Z,36.44
2022-07-30T03:03:10.666Z,36.74
2022-07-30T03:04:10.658Z,37.45
2022-07-30T03:05:10.643Z,39.58
2022-07-30T03:06:10.636Z,40.31
2022-07-30T03:07:11.169Z,37.37
2022-07-30T03:08:10.614Z,38.39
2022-07-30T03:09:10.627Z,36.96
2022-07-30T03:10:10.591Z,36.05
2022-07-30T03:11:10.577Z,34.33
2022-07-30T03:12:10.568Z,33.22
2022-07-30T03:13:10.559Z,33.22
2022-07-30T03:14:10.543Z,33.01
2022-07-30T03:15:10.532Z,33.42
2022-07-30T03:16:10.603Z,33.32
2022-07-30T03:17:10.511Z,36.87
2022-07-30T03:18:10.498Z,36.36
2022-07-30T03:19:10.485Z,38.68
2022-07-30T03:20:10.483Z,36.96
2022-07-30T03:21:10.463Z,37.37
2022-07-30T03:22:10.454Z,36.78
2022-07-30T03:23:10.442Z,34.75
2022-07-30T03:24:10.429Z,35.77
2022-07-30T03:25:10.416Z,35.57
2022-07-30T03:26:10.406Z,34.55
2022-07-30T03:27:10.393Z,34.85
2022-07-30T03:28:10.385Z,37.08
2022-07-30T03:29:10.372Z,35.57
2022-07-30T03:30:10.361Z,38.50
2022-07-30T03:31:10.395Z,38.81
2022-07-30T03:32:10.338Z,35.46
2022-07-30T03:33:10.327Z,38.72
2022-07-30T03:34:10.318Z,39.23
2022-07-30T03:35:17.166Z,38.21
2022-07-30T03:36:11.319Z,39.03
2022-07-30T03:37:10.281Z,36.08
2022-07-30T03:38:10.272Z,34.97
2022-07-30T03:39:10.261Z,34.56
2022-07-30T03:40:10.249Z,33.96
2022-07-30T03:41:10.241Z,34.16
2022-07-30T03:42:10.231Z,34.77
2022-07-30T03:43:32.235Z,34.26
2022-07-30T03:44:10.208Z,34.06
2022-07-30T03:45:10.194Z,33.25
2022-07-30T03:46:10.250Z,32.74
2022-07-30T03:47:10.174Z,32.44
2022-07-30T03:48:10.164Z,32.64
2022-07-30T03:49:10.220Z,32.44
2022-07-30T03:50:10.146Z,33.15
2022-07-30T03:51:10.144Z,33.45
2022-07-30T03:52:10.124Z,33.25
2022-07-30T03:53:10.109Z,33.65
2022-07-30T03:54:13.367Z,34.56
2022-07-30T03:55:10.087Z,35.07
2022-07-30T03:56:10.082Z,36.41
2022-07-30T03:57:10.067Z,35.29
2022-07-30T03:58:10.059Z,34.48
2022-07-30T03:59:10.108Z,33.97
2022-07-30T04:00:10.116Z,33.77
2022-07-30T04:01:10.050Z,33.16
2022-07-30T04:02:10.130Z,32.45
2022-07-30T04:03:10.040Z,32.76
2022-07-30T04:04:10.148Z,32.25
2022-07-30T04:05:09.991Z,32.35
2022-07-30T04:06:09.994Z,34.48
2022-07-30T04:07:09.961Z,33.97
2022-07-30T04:08:09.952Z,32.34
2022-07-30T04:09:09.944Z,33.06
2022-07-30T04:10:09.931Z,32.03
2022-07-30T04:11:09.923Z,32.14
2022-07-30T04:12:09.909Z,30.91
2022-07-30T04:13:09.976Z,30.71
2022-07-30T04:14:09.888Z,31.12
2022-07-30T04:16:06.037Z,31.83
2022-07-30T04:16:41.306Z,31.83
2022-07-30T04:17:09.945Z,31.73
2022-07-30T04:18:09.845Z,33.04
2022-07-30T04:19:09.833Z,33.25
2022-07-30T04:20:09.834Z,35.09
2022-07-30T04:21:17.010Z,34.89
2022-07-30T04:22:09.804Z,35.80
2022-07-30T04:23:09.790Z,35.29
2022-07-30T04:24:09.782Z,34.28
2022-07-30T04:25:09.768Z,33.26
2022-07-30T04:26:09.759Z,33.26
2022-07-30T04:27:09.747Z,33.26
2022-07-30T04:28:09.738Z,34.48
2022-07-30T04:29:14.298Z,34.17
2022-07-30T04:30:09.719Z,32.56
2022-07-30T04:31:09.733Z,32.56
2022-07-30T04:32:09.710Z,33.87
2022-07-30T04:33:09.683Z,34.28
2022-07-30T04:34:09.675Z,35.09
2022-07-30T04:35:09.667Z,37.13
2022-07-30T04:36:11.174Z,35.00
2022-07-30T04:37:09.640Z,35.92
2022-07-30T04:38:09.631Z,33.89
2022-07-30T04:39:09.620Z,33.67
2022-07-30T04:40:09.609Z,32.76
2022-07-30T04:41:09.597Z,32.35
2022-07-30T04:42:09.590Z,33.47
2022-07-30T04:43:09.581Z,32.65
2022-07-30T04:44:09.579Z,33.47
2022-07-30T04:45:09.586Z,33.16
2022-07-30T04:46:09.594Z,34.78
2022-07-30T04:47:09.545Z,34.99
2022-07-30T04:48:09.531Z,33.26
2022-07-30T04:49:09.585Z,33.87
2022-07-30T04:50:09.502Z,32.56
2022-07-30T04:51:09.491Z,32.14
2022-07-30T04:52:09.477Z,31.22
2022-07-30T04:53:09.464Z,31.02
2022-07-30T04:54:15.209Z,30.71
2022-07-30T04:55:09.444Z,30.90
2022-07-30T04:56:09.433Z,31.01
2022-07-30T04:57:09.422Z,31.10
2022-07-30T04:58:09.409Z,28.77
2022-07-30T04:59:09.402Z,28.86
2022-07-30T05:00:09.386Z,28.76
2022-07-30T05:01:09.597Z,28.66
2022-07-30T05:02:09.443Z,29.05
2022-07-30T05:03:09.353Z,29.25
2022-07-30T05:04:09.341Z,29.88
2022-07-30T05:05:09.415Z,30.38
2022-07-30T05:06:09.318Z,31.70
2022-07-30T05:07:09.311Z,30.36
2022-07-30T05:08:09.335Z,32.41
2022-07-30T05:09:09.297Z,30.98
2022-07-30T05:10:09.317Z,32.09
2022-07-30T05:11:09.556Z,32.19
2022-07-30T05:12:09.250Z,32.29
2022-07-30T05:13:09.239Z,33.81
2022-07-30T05:14:09.246Z,32.09
2022-07-30T05:15:09.221Z,31.58
2022-07-30T05:16:09.246Z,31.68
2022-07-30T05:17:09.197Z,32.50
2022-07-30T05:18:09.185Z,31.58
2022-07-30T05:19:09.180Z,31.58
2022-07-30T05:20:09.165Z,31.77
2022-07-30T05:21:09.156Z,31.97
2022-07-30T05:22:09.141Z,33.69
2022-07-30T05:23:09.131Z,33.59
2022-07-30T05:24:09.123Z,32.68
2022-07-30T05:25:15.784Z,33.18
2022-07-30T05:26:09.096Z,32.58
2022-07-30T05:27:09.089Z,32.56
2022-07-30T05:28:09.078Z,32.55
2022-07-30T05:29:09.067Z,32.24
2022-07-30T05:30:10.083Z,32.93
2022-07-30T05:31:09.138Z,38.28
2022-07-30T05:32:09.057Z,41.08
2022-07-30T05:33:13.290Z,39.57
2022-07-30T05:34:09.043Z,42.38
2022-07-30T05:35:09.002Z,45.20
2022-07-30T05:36:08.988Z,46.41
2022-07-30T05:37:10.056Z,47.80
2022-07-30T05:38:08.965Z,50.52
2022-07-30T05:39:08.957Z,52.74
2022-07-30T05:40:08.945Z,53.14
2022-07-30T05:41:19.089Z,51.53
2022-07-30T05:42:09.960Z,50.82
2022-07-30T05:43:08.915Z,50.12
2022-07-30T05:44:08.906Z,52.31
2022-07-30T05:45:08.893Z,54.41
2022-07-30T05:46:08.925Z,55.39
2022-07-30T05:47:08.882Z,56.24
2022-07-30T05:48:08.859Z,60.00
2022-07-30T05:49:08.919Z,65.41
2022-07-30T05:50:08.837Z,69.09
2022-07-30T05:51:08.826Z,71.97
2022-07-30T05:52:08.814Z,74.24
2022-07-30T05:53:08.821Z,76.31
2022-07-30T05:54:08.902Z,78.68
2022-07-30T05:55:08.991Z,79.74
2022-07-30T05:56:09.001Z,81.91
2022-07-30T05:57:08.762Z,82.77
2022-07-30T05:58:08.768Z,84.57
2022-07-30T05:59:08.740Z,84.73
2022-07-30T06:00:10.728Z,84.83
2022-07-30T06:01:08.817Z,85.47
2022-07-30T06:02:08.710Z,83.51
2022-07-30T06:03:08.696Z,83.15
2022-07-30T06:04:08.722Z,83.15
2022-07-30T06:05:08.674Z,81.35
2022-07-30T06:06:08.666Z,81.45
2022-07-30T06:07:08.673Z,82.31
2022-07-30T06:08:08.642Z,81.09
2022-07-30T06:09:08.632Z,78.81
2022-07-30T06:10:08.620Z,77.35
2022-07-30T06:11:08.609Z,75.64
2022-07-30T06:12:08.597Z,74.54
2022-07-30T06:13:08.587Z,74.14
2022-07-30T06:14:08.578Z,74.14
2022-07-30T06:15:08.567Z,74.27
2022-07-30T06:16:08.594Z,72.30
2022-07-30T06:17:08.574Z,72.30
2022-07-30T06:18:08.571Z,69.79
2022-07-30T06:19:08.531Z,70.70
2022-07-30T06:20:08.517Z,69.89
2022-07-30T06:21:08.502Z,68.79
2022-07-30T06:22:08.492Z,71.50
2022-07-30T06:23:08.482Z,72.10
2022-07-30T06:24:08.469Z,73.07
2022-07-30T06:25:08.460Z,74.84
2022-07-30T06:26:08.447Z,74.34
2022-07-30T06:27:08.440Z,74.94
2022-07-30T06:28:27.864Z,73.90
2022-07-30T06:29:09.489Z,74.20
2022-07-30T06:30:08.403Z,76.67
2022-07-30T06:31:08.462Z,74.90
2022-07-30T06:32:08.381Z,75.81
2022-07-30T06:33:08.372Z,74.10
2022-07-30T06:34:08.358Z,76.67
2022-07-30T06:35:08.349Z,76.07
2022-07-30T06:36:08.338Z,76.41
2022-07-30T06:37:08.328Z,76.41
2022-07-30T06:38:08.335Z,76.71
2022-07-30T06:39:08.401Z,74.71
2022-07-30T06:40:08.335Z,75.81
2022-07-30T06:41:08.335Z,76.71
2022-07-30T06:42:08.278Z,75.57
2022-07-30T06:43:08.261Z,76.78
2022-07-30T06:44:08.250Z,76.87
2022-07-30T06:45:08.242Z,76.78
2022-07-30T06:46:08.283Z,75.71
2022-07-30T06:47:08.732Z,73.33
2022-07-30T06:48:08.208Z,72.87
2022-07-30T06:49:08.346Z,71.66
2022-07-30T06:50:08.229Z,71.53
2022-07-30T06:51:08.173Z,71.73
2022-07-30T06:52:08.425Z,73.60
2022-07-30T06:53:08.153Z,76.01
2022-07-30T06:54:08.142Z,75.01
2022-07-30T06:55:08.131Z,74.60
2022-07-30T06:56:08.119Z,75.51
2022-07-30T06:57:08.109Z,73.70
2022-07-30T06:58:08.095Z,75.27
2022-07-30T06:59:08.089Z,77.58
2022-07-30T07:00:08.077Z,77.34
2022-07-30T07:01:11.049Z,77.34
2022-07-30T07:02:08.069Z,79.34
2022-07-30T07:03:11.630Z,78.74
2022-07-30T07:04:08.122Z,78.04
2022-07-30T07:05:08.022Z,78.50
2022-07-30T07:06:08.010Z,79.00
2022-07-30T07:07:12.510Z,79.17
2022-07-30T07:08:08.000Z,80.43
2022-07-30T07:09:07.981Z,82.83
2022-07-30T07:10:07.970Z,82.69
2022-07-30T07:11:07.959Z,82.03
2022-07-30T07:12:07.946Z,81.89
2022-07-30T07:13:08.012Z,81.09
2022-07-30T07:14:07.926Z,81.79
2022-07-30T07:15:07.921Z,83.09
2022-07-30T07:16:07.903Z,84.05
2022-07-30T07:17:08.228Z,84.25
2022-07-30T07:18:07.887Z,84.77
2022-07-30T07:19:07.871Z,85.37
2022-07-30T07:20:07.861Z,86.31
2022-07-30T07:21:07.853Z,87.51
2022-07-30T07:22:07.845Z,86.95
2022-07-30T07:23:09.207Z,86.05
2022-07-30T07:24:07.852Z,85.89
2022-07-30T07:25:07.827Z,84.99
2022-07-30T07:26:07.839Z,85.79
2022-07-30T07:27:07.790Z,85.29
2022-07-30T07:28:11.622Z,85.45
2022-07-30T07:29:07.768Z,85.25
2022-07-30T07:30:07.757Z,86.45
2022-07-30T07:31:07.913Z,86.35
2022-07-30T07:32:08.199Z,86.99
2022-07-30T07:33:07.727Z,86.19
2022-07-30T07:34:07.719Z,85.39
2022-07-30T07:35:07.701Z,85.05
2022-07-30T07:36:07.692Z,85.25
2022-07-30T07:37:07.683Z,86.05
2022-07-30T07:38:07.676Z,86.15
2022-07-30T07:39:07.660Z,85.15
2022-07-30T07:40:07.651Z,85.11
2022-07-30T07:41:07.637Z,85.55
2022-07-30T07:42:07.626Z,85.15
2022-07-30T07:43:07.618Z,86.05
2022-07-30T07:44:07.607Z,84.65
2022-07-30T07:45:07.596Z,84.75
2022-07-30T07:46:07.697Z,84.45
2022-07-30T07:47:07.592Z,85.25
2022-07-30T07:48:07.590Z,85.05
2022-07-30T07:49:07.670Z,84.71
2022-07-30T07:50:07.539Z,86.11
2022-07-30T07:51:09.604Z,85.55
2022-07-30T07:52:07.521Z,84.95
2022-07-30T07:53:07.511Z,84.75
2022-07-30T07:54:21.136Z,85.05
2022-07-30T07:55:07.488Z,85.75
2022-07-30T07:56:07.476Z,85.55
2022-07-30T07:57:07.466Z,84.85
2022-07-30T07:58:07.456Z,84.91
2022-07-30T07:59:07.450Z,84.91
2022-07-30T08:00:07.437Z,85.87
2022-07-30T08:01:07.465Z,86.57
2022-07-30T08:02:08.121Z,86.47
2022-07-30T08:03:07.407Z,86.47
2022-07-30T08:04:10.183Z,87.82
2022-07-30T08:05:07.385Z,87.02
2022-07-30T08:06:10.830Z,86.87
2022-07-30T08:07:07.362Z,86.47
2022-07-30T08:08:07.350Z,86.41
2022-07-30T08:09:07.340Z,85.87
2022-07-30T08:10:07.361Z,85.21
2022-07-30T08:11:07.369Z,85.91
2022-07-30T08:12:07.318Z,85.41
2022-07-30T08:13:07.320Z,85.97
2022-07-30T08:14:07.293Z,85.97
2022-07-30T08:15:07.272Z,85.77
2022-07-30T08:16:07.274Z,85.01
2022-07-30T08:17:08.033Z,85.11
2022-07-30T08:18:07.241Z,85.31
2022-07-30T08:19:07.238Z,84.31
2022-07-30T08:20:07.260Z,84.91
2022-07-30T08:21:07.215Z,84.71
2022-07-30T08:22:07.203Z,85.21
2022-07-30T08:23:07.191Z,85.17
2022-07-30T08:24:07.174Z,85.47
2022-07-30T08:25:07.164Z,86.03
2022-07-30T08:26:07.160Z,86.33
2022-07-30T08:27:07.145Z,86.72
2022-07-30T08:28:07.130Z,86.43
2022-07-30T08:29:07.145Z,85.58
2022-07-30T08:30:07.199Z,86.08
2022-07-30T08:31:07.112Z,86.98
2022-07-30T08:32:07.115Z,85.78
2022-07-30T08:33:07.081Z,86.08
2022-07-30T08:34:07.071Z,85.99
2022-07-30T08:35:07.286Z,85.99
2022-07-30T08:36:09.604Z,85.88
2022-07-30T08:37:07.041Z,85.78
2022-07-30T08:38:07.025Z,85.69
2022-07-30T08:39:07.019Z,85.39
2022-07-30T08:40:07.004Z,85.58
2022-07-30T08:41:06.995Z,85.94
2022-07-30T08:42:06.986Z,85.85
2022-07-30T08:43:07.028Z,85.35
2022-07-30T08:44:11.596Z,84.55
2022-07-30T08:45:06.955Z,86.50
2022-07-30T08:46:06.943Z,86.40
2022-07-30T08:47:06.931Z,86.30
2022-07-30T08:48:06.918Z,87.16
2022-07-30T08:49:10.813Z,86.86
2022-07-30T08:50:06.902Z,87.71
2022-07-30T08:51:06.892Z,86.91
2022-07-30T08:52:06.892Z,88.91
2022-07-30T08:53:06.919Z,88.91
2022-07-30T08:54:06.875Z,88.71
2022-07-30T08:55:06.852Z,88.87
2022-07-30T08:56:06.860Z,88.67
2022-07-30T08:57:06.823Z,88.57
2022-07-30T08:58:06.813Z,89.26
2022-07-30T08:59:06.807Z,88.46
2022-07-30T09:00:06.790Z,89.56
2022-07-30T09:01:06.784Z,89.32
2022-07-30T09:02:10.401Z,89.58
2022-07-30T09:03:06.762Z,90.47
2022-07-30T09:04:06.763Z,89.73
2022-07-30T09:05:06.741Z,89.89
2022-07-30T09:06:06.728Z,89.45
2022-07-30T09:07:06.719Z,88.21
2022-07-30T09:08:08.976Z,88.27
2022-07-30T09:09:06.699Z,87.83
2022-07-30T09:10:06.691Z,85.55
2022-07-30T09:11:06.678Z,82.65
2022-07-30T09:12:06.665Z,81.82
2022-07-30T09:13:06.658Z,76.09
2022-07-30T09:14:08.604Z,77.80
2022-07-30T09:15:06.659Z,76.42
2022-07-30T09:16:06.685Z,76.78
2022-07-30T09:17:06.714Z,75.45
2022-07-30T09:18:06.628Z,73.44
2022-07-30T09:19:06.594Z,68.33
2022-07-30T09:20:06.596Z,64.88
2022-07-30T09:21:06.570Z,62.55
2022-07-30T09:22:06.563Z,57.77
2022-07-30T09:23:06.555Z,55.87
2022-07-30T09:24:06.546Z,54.08
2022-07-30T09:25:06.532Z,54.14
2022-07-30T09:26:06.520Z,53.92
2022-07-30T09:27:06.937Z,51.79
2022-07-30T09:28:11.151Z,52.55
2022-07-30T09:29:07.551Z,52.89
2022-07-30T09:30:06.483Z,52.97
2022-07-30T09:31:06.472Z,52.28
2022-07-30T09:32:06.856Z,53.09
2022-07-30T09:33:06.455Z,54.17
2022-07-30T09:34:06.443Z,53.04
2022-07-30T09:35:06.460Z,52.58
2022-07-30T09:36:06.424Z,54.00
2022-07-30T09:37:06.411Z,54.08
2022-07-30T09:38:06.821Z,53.88
2022-07-30T09:39:06.450Z,53.74
2022-07-30T09:40:06.421Z,55.95
2022-07-30T09:41:17.197Z,54.84
2022-07-30T09:42:06.377Z,54.72
2022-07-30T09:43:06.356Z,54.60
2022-07-30T09:44:06.374Z,52.89
2022-07-30T09:45:06.339Z,51.00
2022-07-30T09:46:06.325Z,51.25
2022-07-30T09:47:06.320Z,48.47
2022-07-30T09:48:06.306Z,48.45
2022-07-30T09:49:06.367Z,48.99
2022-07-30T09:50:07.501Z,46.91
2022-07-30T09:51:06.279Z,48.03
2022-07-30T09:52:07.688Z,48.23
2022-07-30T09:53:06.260Z,48.43
2022-07-30T09:54:06.249Z,49.33
2022-07-30T09:55:06.239Z,49.21
2022-07-30T09:56:06.233Z,52.21
2022-07-30T09:57:06.221Z,51.37
2022-07-30T09:58:07.237Z,51.54
2022-07-30T09:59:06.200Z,50.61
2022-07-30T10:00:06.194Z,50.27
2022-07-30T10:01:06.202Z,49.16
2022-07-30T10:02:10.273Z,49.29
2022-07-30T10:03:12.726Z,49.99
2022-07-30T10:04:07.187Z,49.46
2022-07-30T10:05:06.143Z,49.82
2022-07-30T10:06:06.134Z,48.60
2022-07-30T10:07:06.125Z,47.99
2022-07-30T10:08:09.344Z,47.23
2022-07-30T10:09:14.203Z,46.49
2022-07-30T10:10:07.122Z,46.84
2022-07-30T10:11:09.677Z,46.74
2022-07-30T10:12:10.309Z,46.15
2022-07-30T10:13:06.063Z,46.42
2022-07-30T10:14:06.061Z,45.83
2022-07-30T10:15:07.271Z,47.03
2022-07-30T10:16:06.042Z,47.20
2022-07-30T10:17:06.029Z,45.93
2022-07-30T10:18:06.623Z,46.03
2022-07-30T10:19:07.118Z,46.30
2022-07-30T10:20:08.206Z,47.47
2022-07-30T10:21:06.000Z,47.89
2022-07-30T10:22:05.985Z,48.77
2022-07-30T10:23:07.662Z,46.71
2022-07-30T10:24:06.878Z,45.98
2022-07-30T10:25:05.982Z,46.78
2022-07-30T10:26:05.965Z,46.63
2022-07-30T10:27:06.591Z,48.01
2022-07-30T10:28:05.924Z,46.47
2022-07-30T10:29:05.915Z,45.15
2022-07-30T10:30:05.917Z,45.25
2022-07-30T10:31:08.280Z,44.83
2022-07-30T10:32:05.884Z,43.73
2022-07-30T10:33:05.875Z,43.66
2022-07-30T10:34:05.874Z,44.54
2022-07-30T10:35:05.890Z,45.56
2022-07-30T10:36:05.850Z,46.10
2022-07-30T10:37:06.844Z,47.23
2022-07-30T10:38:05.828Z,46.76
2022-07-30T10:39:05.821Z,46.02
2022-07-30T10:40:05.809Z,46.93
2022-07-30T10:41:05.800Z,46.63
2022-07-30T10:42:05.787Z,46.22
2022-07-30T10:43:05.777Z,46.61
2022-07-30T10:44:05.771Z,45.78
2022-07-30T10:45:05.763Z,44.70
2022-07-30T10:46:05.775Z,45.70
2022-07-30T10:47:07.769Z,46.08
2022-07-30T10:48:05.851Z,44.54
2022-07-30T10:49:05.782Z,45.49
2022-07-30T10:50:05.714Z,46.31
2022-07-30T10:51:05.701Z,46.91
2022-07-30T10:52:05.689Z,47.49
2022-07-30T10:53:05.678Z,45.86
2022-07-30T10:54:05.670Z,45.20
2022-07-30T10:55:06.688Z,43.76
2022-07-30T10:56:05.656Z,45.29
2022-07-30T10:57:05.643Z,44.85
2022-07-30T10:58:05.922Z,43.44
2022-07-30T10:59:05.624Z,43.03
2022-07-30T11:00:05.615Z,40.84
2022-07-30T11:01:05.604Z,42.19
2022-07-30T11:02:07.058Z,43.52
2022-07-30T11:03:14.239Z,44.66
2022-07-30T11:04:05.577Z,43.54
2022-07-30T11:05:05.565Z,43.95
2022-07-30T11:06:05.558Z,43.82
2022-07-30T11:07:05.548Z,45.17
2022-07-30T11:08:05.541Z,45.37
2022-07-30T11:09:05.545Z,43.31
2022-07-30T11:10:09.496Z,44.51
2022-07-30T11:11:19.690Z,45.12
2022-07-30T11:12:06.826Z,45.24
2022-07-30T11:13:05.489Z,45.77
2022-07-30T11:14:05.479Z,47.00
2022-07-30T11:15:06.888Z,47.80
2022-07-30T11:16:07.518Z,48.82
2022-07-30T11:17:05.450Z,48.35
2022-07-30T11:18:12.510Z,48.83
2022-07-30T11:19:55.016Z,48.35
2022-07-30T11:20:06.463Z,48.42
2022-07-30T11:21:05.963Z,48.79
2022-07-30T11:22:05.575Z,48.18
2022-07-30T11:23:05.393Z,47.66
2022-07-30T11:24:05.380Z,46.98
2022-07-30T11:25:13.087Z,44.32
2022-07-30T11:26:06.391Z,42.68
2022-07-30T11:27:05.353Z,43.34
2022-07-30T11:28:05.342Z,41.62
2022-07-30T11:29:05.335Z,42.38
2022-07-30T11:30:05.373Z,41.52
2022-07-30T11:31:10.396Z,41.82
2022-07-30T11:32:06.996Z,41.70
2022-07-30T11:33:05.358Z,42.05
2022-07-30T11:34:05.409Z,41.66
2022-07-30T11:35:05.295Z,42.42
2022-07-30T11:36:05.263Z,42.01
2022-07-30T11:37:18.816Z,39.23
2022-07-30T11:38:05.256Z,38.53
2022-07-30T11:39:07.365Z,38.53
2022-07-30T11:40:05.227Z,38.96
2022-07-30T11:41:05.216Z,39.69
2022-07-30T11:42:05.206Z,41.29
2022-07-30T11:43:05.197Z,42.74
2022-07-30T11:44:05.184Z,44.57
2022-07-30T11:45:05.180Z,44.71
2022-07-30T11:46:05.166Z,46.68
2022-07-30T11:47:05.157Z,46.21
2022-07-30T11:48:05.147Z,46.75
2022-07-30T11:49:05.340Z,47.95
2022-07-30T11:50:05.129Z,47.66
2022-07-30T11:51:05.115Z,47.95
2022-07-30T11:52:05.285Z,48.37
2022-07-30T11:53:05.095Z,48.76
2022-07-30T11:54:05.091Z,48.74
2022-07-30T11:55:05.087Z,48.86
2022-07-30T11:56:05.096Z,48.47
2022-07-30T11:57:05.095Z,47.66
2022-07-30T11:58:05.060Z,47.95
2022-07-30T11:59:05.034Z,47.04
2022-07-30T12:00:05.031Z,45.86
2022-07-30T12:01:09.439Z,46.28
2022-07-30T12:02:05.500Z,46.28
2022-07-30T12:03:05.002Z,47.14
2022-07-30T12:04:04.995Z,48.30
2022-07-30T12:05:04.972Z,45.43
2022-07-30T12:06:04.966Z,41.89
2022-07-30T12:07:05.250Z,39.98
2022-07-30T12:08:04.945Z,40.53
2022-07-30T12:09:04.931Z,38.22
2022-07-30T12:10:04.922Z,37.63
2022-07-30T12:11:04.930Z,39.06
2022-07-30T12:12:04.906Z,40.45
2022-07-30T12:13:04.893Z,39.26
2022-07-30T12:14:04.887Z,38.43
2022-07-30T12:15:04.877Z,38.02
2022-07-30T12:16:04.867Z,36.24
2022-07-30T12:17:05.288Z,37.83
2022-07-30T12:18:25.207Z,37.52
2022-07-30T12:19:05.876Z,37.04
2022-07-30T12:20:05.033Z,36.25
2022-07-30T12:21:04.897Z,36.12
2022-07-30T12:22:04.877Z,35.52
2022-07-30T12:23:04.866Z,34.43
2022-07-30T12:24:04.849Z,35.02
2022-07-30T12:25:04.800Z,34.61
2022-07-30T12:26:04.969Z,35.08
2022-07-30T12:27:05.438Z,34.98
2022-07-30T12:28:04.754Z,35.41
2022-07-30T12:29:04.743Z,36.16
2022-07-30T12:30:04.736Z,35.94
2022-07-30T12:31:04.726Z,35.44
2022-07-30T12:32:04.716Z,37.45
2022-07-30T12:33:04.706Z,37.89
2022-07-30T12:34:04.697Z,39.10
2022-07-30T12:35:04.687Z,40.60
2022-07-30T12:36:04.678Z,40.53
2022-07-30T12:37:04.967Z,40.45
2022-07-30T12:38:04.660Z,41.98
2022-07-30T12:39:04.647Z,43.47
2022-07-30T12:40:04.639Z,42.41
2022-07-30T12:41:04.631Z,42.90
2022-07-30T12:42:04.641Z,42.32
2022-07-30T12:43:04.681Z,42.79
2022-07-30T12:44:05.625Z,42.58
2022-07-30T12:45:04.593Z,43.88
2022-07-30T12:46:04.586Z,44.77
2022-07-30T12:47:05.231Z,44.77
2022-07-30T12:48:04.565Z,44.26
2022-07-30T12:49:17.486Z,44.06
2022-07-30T12:50:04.581Z,43.88
2022-07-30T12:51:04.529Z,43.88
2022-07-30T12:52:04.520Z,43.69